createdAt,value
2023-01-09T00:02:24.890Z,85.90
2023-01-09T00:05:22.889Z,86.30
2023-01-09T00:08:20.883Z,86.10
2023-01-09T00:11:18.595Z,86.10
2023-01-09T00:14:17.730Z,86.30
2023-01-09T00:17:15.474Z,85.80
2023-01-09T00:20:13.456Z,86.70
2023-01-09T00:23:11.174Z,86.50
2023-01-09T00:26:13.103Z,86.40
2023-01-09T00:29:12.042Z,86.60
2023-01-09T00:32:10.928Z,86.30
2023-01-09T00:35:10.565Z,86.20
2023-01-09T00:38:08.409Z,85.10
2023-01-09T00:41:10.598Z,85.10
2023-01-09T00:44:15.428Z,84.80
2023-01-09T00:47:20.006Z,85.60
2023-01-09T00:50:25.074Z,85.00
2023-01-09T00:53:26.939Z,86.00
2023-01-09T00:56:26.290Z,85.40
2023-01-09T00:59:24.277Z,86.00
2023-01-09T01:02:22.308Z,85.70
2023-01-09T01:05:35.513Z,87.00
2023-01-09T01:08:33.637Z,88.20
2023-01-09T01:11:33.328Z,87.90
2023-01-09T01:14:31.449Z,87.90
2023-01-09T01:17:29.476Z,88.10
2023-01-09T01:20:27.450Z,88.60
2023-01-09T01:23:25.159Z,88.40
2023-01-09T01:26:23.025Z,88.40
2023-01-09T01:29:21.414Z,88.10
2023-01-09T01:32:19.499Z,88.50
2023-01-09T01:35:17.396Z,88.50
2023-01-09T01:38:15.219Z,89.00
2023-01-09T01:41:12.971Z,88.30
2023-01-09T01:44:41.339Z,88.50
2023-01-09T01:47:47.092Z,88.90
2023-01-09T01:50:51.005Z,88.70
2023-01-09T01:53:56.561Z,88.50
2023-01-09T01:56:59.041Z,87.90
2023-01-09T02:00:00.603Z,88.40
2023-01-09T02:02:59.998Z,88.20
2023-01-09T02:05:57.898Z,87.70
2023-01-09T02:08:56.497Z,87.50
2023-01-09T02:11:57.615Z,87.50
2023-01-09T02:15:04.316Z,87.90
2023-01-09T02:18:22.846Z,87.70
2023-01-09T02:21:33.672Z,87.60
2023-01-09T02:25:06.507Z,87.60
2023-01-09T02:28:44.014Z,87.80
2023-01-09T02:32:03.053Z,88.60
2023-01-09T02:35:31.624Z,90.00
2023-01-09T02:38:48.825Z,89.10
2023-01-09T02:42:06.501Z,90.00
2023-01-09T02:45:04.793Z,89.30
2023-01-09T02:48:03.537Z,88.80
2023-01-09T02:51:21.022Z,88.40
2023-01-09T02:54:43.881Z,89.10
2023-01-09T02:58:11.244Z,89.20
2023-01-09T03:01:37.798Z,89.40
2023-01-09T03:05:04.763Z,89.30
2023-01-09T03:08:09.141Z,88.90
2023-01-09T03:11:09.357Z,88.80
2023-01-09T03:14:13.418Z,88.20
2023-01-09T03:17:15.078Z,88.00
2023-01-09T03:20:15.504Z,88.30
2023-01-09T03:23:13.467Z,88.10
2023-01-09T03:26:12.393Z,88.10
2023-01-09T03:29:10.408Z,88.00
2023-01-09T03:32:08.362Z,87.80
2023-01-09T03:35:06.421Z,87.80
2023-01-09T03:38:06.132Z,87.70
2023-01-09T03:41:05.469Z,87.50
2023-01-09T03:44:03.317Z,87.90
2023-01-09T03:47:01.364Z,89.30
2023-01-09T03:49:59.295Z,90.40
2023-01-09T03:52:57.103Z,90.70
2023-01-09T03:55:57.290Z,90.70
2023-01-09T03:58:55.087Z,91.20
2023-01-09T04:01:53.157Z,91.00
2023-01-09T04:04:50.933Z,90.70
2023-01-09T04:07:49.036Z,90.50
2023-01-09T04:10:49.770Z,90.80
2023-01-09T04:13:47.943Z,90.40
2023-01-09T04:16:45.729Z,90.00
2023-01-09T04:19:43.868Z,90.20
2023-01-09T04:22:41.898Z,90.30
2023-01-09T04:25:39.770Z,90.20
2023-01-09T04:28:37.453Z,90.20
2023-01-09T04:31:35.339Z,90.10
2023-01-09T04:34:33.112Z,90.00
2023-01-09T04:37:30.953Z,90.00
2023-01-09T04:40:29.197Z,89.80
2023-01-09T04:43:27.176Z,89.60
2023-01-09T04:46:24.880Z,89.10
2023-01-09T04:49:23.619Z,89.10
2023-01-09T04:52:21.521Z,89.30
2023-01-09T04:55:19.553Z,90.00
2023-01-09T04:58:17.268Z,89.90
2023-01-09T05:01:15.227Z,88.60
2023-01-09T05:04:13.531Z,89.00
2023-01-09T05:07:11.426Z,88.20
2023-01-09T05:10:10.990Z,87.10
2023-01-09T05:13:08.944Z,86.50
2023-01-09T05:16:07.244Z,86.20
2023-01-09T05:19:05.333Z,86.60
2023-01-09T05:22:03.118Z,86.50
2023-01-09T05:25:01.013Z,86.50
2023-01-09T05:27:58.786Z,86.40
2023-01-09T05:30:56.688Z,85.80
2023-01-09T05:33:54.654Z,85.60
2023-01-09T05:36:52.830Z,85.80
2023-01-09T05:39:50.859Z,85.00
2023-01-09T05:42:49.000Z,84.40
2023-01-09T05:45:46.812Z,82.60
2023-01-09T05:48:45.435Z,82.00
2023-01-09T05:51:43.238Z,80.60
2023-01-09T05:54:41.144Z,81.00
2023-01-09T05:57:40.145Z,81.00
2023-01-09T06:00:38.012Z,81.40
2023-01-09T06:03:36.040Z,82.30
2023-01-09T06:06:33.982Z,82.00
2023-01-09T06:09:31.894Z,83.90
2023-01-09T06:12:29.774Z,86.30
2023-01-09T06:15:27.588Z,89.70
2023-01-09T06:18:27.110Z,90.30
2023-01-09T06:21:24.842Z,89.00
2023-01-09T06:24:22.720Z,87.40
2023-01-09T06:27:20.503Z,84.50
2023-01-09T06:30:19.116Z,82.60
2023-01-09T06:33:16.912Z,82.50
2023-01-09T06:36:15.449Z,82.80
2023-01-09T06:39:14.542Z,83.50
2023-01-09T06:42:12.527Z,81.90
2023-01-09T06:45:11.014Z,80.80
2023-01-09T06:48:08.885Z,81.70
2023-01-09T06:55:18.382Z,80.20
2023-01-09T06:58:16.484Z,80.20
2023-01-09T07:01:14.577Z,78.30
2023-01-09T07:04:12.408Z,76.90
2023-01-09T07:07:10.421Z,78.20
2023-01-09T07:10:09.714Z,78.30
2023-01-09T07:13:07.780Z,78.80
2023-01-09T07:16:06.045Z,78.70
2023-01-09T07:19:04.041Z,79.20
2023-01-09T07:22:01.923Z,78.40
2023-01-09T07:25:00.123Z,77.80
2023-01-09T07:27:58.043Z,78.90
2023-01-09T07:30:56.102Z,78.10
2023-01-09T07:33:54.255Z,78.00
2023-01-09T07:36:52.460Z,77.50
2023-01-09T07:39:50.328Z,76.40
2023-01-09T07:42:48.934Z,77.10
2023-01-09T07:45:47.712Z,77.30
2023-01-09T07:48:45.626Z,76.20
2023-01-09T07:51:45.004Z,74.80
2023-01-09T07:54:42.989Z,73.40
2023-01-09T07:57:40.836Z,73.90
2023-01-09T08:00:38.795Z,73.60
2023-01-09T08:03:36.800Z,73.20
2023-01-09T08:06:34.725Z,72.00
2023-01-09T08:09:32.557Z,71.60
2023-01-09T08:12:30.521Z,71.50
2023-01-09T08:15:28.662Z,71.50
2023-01-09T08:18:26.628Z,71.20
2023-01-09T08:21:25.223Z,70.70
2023-01-09T08:24:24.986Z,70.70
2023-01-09T08:27:23.043Z,71.10
2023-01-09T08:30:21.106Z,70.60
2023-01-09T08:33:19.055Z,71.40
2023-01-09T08:36:17.047Z,71.40
2023-01-09T08:39:15.303Z,71.60
2023-01-09T08:42:28.342Z,71.40
2023-01-09T08:45:41.782Z,70.60
2023-01-09T08:48:39.601Z,69.40
2023-01-09T08:51:37.342Z,68.30
2023-01-09T08:54:39.439Z,67.60
2023-01-09T08:57:37.372Z,71.80
2023-01-09T09:00:35.261Z,73.20
2023-01-09T09:03:33.152Z,73.00
2023-01-09T09:06:30.929Z,72.50
2023-01-09T09:09:28.719Z,70.60
2023-01-09T09:12:26.579Z,69.20
2023-01-09T09:15:25.699Z,72.20
2023-01-09T09:18:23.544Z,73.80
2023-01-09T09:21:21.270Z,74.80
2023-01-09T09:24:22.317Z,74.80
2023-01-09T09:27:20.141Z,75.20
2023-01-09T09:30:19.828Z,76.40
2023-01-09T09:33:17.567Z,76.70
2023-01-09T09:36:15.371Z,79.30
2023-01-09T09:39:13.144Z,82.30
2023-01-09T09:42:54.360Z,83.60
2023-01-09T09:46:05.902Z,86.90
2023-01-09T09:49:11.487Z,87.30
2023-01-09T09:52:30.065Z,87.20
2023-01-09T09:55:34.042Z,84.70
2023-01-09T09:58:39.224Z,82.60
2023-01-09T10:01:42.649Z,81.90
2023-01-09T10:04:48.992Z,81.00
2023-01-09T10:07:51.555Z,81.00
2023-01-09T10:10:54.281Z,81.00
2023-01-09T10:14:22.911Z,80.60
2023-01-09T10:17:52.475Z,79.60
2023-01-09T10:20:57.780Z,78.80
2023-01-09T10:24:14.509Z,78.30
2023-01-09T10:27:34.330Z,78.90
2023-01-09T10:30:54.009Z,78.30
2023-01-09T10:34:13.974Z,78.20
2023-01-09T10:37:19.960Z,78.90
2023-01-09T10:40:37.770Z,80.10
2023-01-09T10:43:43.035Z,80.80
2023-01-09T10:46:48.259Z,81.40
2023-01-09T10:49:48.629Z,81.60
2023-01-09T10:52:47.146Z,81.70
2023-01-09T10:55:48.295Z,81.90
2023-01-09T10:58:46.220Z,83.10
2023-01-09T11:01:44.799Z,83.30
2023-01-09T11:04:44.051Z,84.10
2023-01-09T11:07:45.389Z,84.40
2023-01-09T11:10:50.469Z,84.10
2023-01-09T11:14:07.097Z,84.50
2023-01-09T11:17:05.205Z,84.00
2023-01-09T11:20:14.466Z,83.10
2023-01-09T11:23:27.450Z,84.20
2023-01-09T11:26:25.846Z,83.80
2023-01-09T11:29:26.184Z,83.00
2023-01-09T11:32:33.531Z,83.10
2023-01-09T11:35:34.800Z,82.10
2023-01-09T11:38:46.609Z,81.90
2023-01-09T11:41:44.590Z,81.30
2023-01-09T11:44:42.456Z,82.60
2023-01-09T11:47:41.927Z,81.50
2023-01-09T11:50:39.699Z,82.20
2023-01-09T11:53:51.746Z,82.10
2023-01-09T11:56:50.981Z,82.50
2023-01-09T11:59:49.144Z,82.90
2023-01-09T12:03:07.911Z,82.80
2023-01-09T12:06:22.361Z,82.00
2023-01-09T12:09:38.296Z,78.90
2023-01-09T12:12:58.283Z,78.70
2023-01-09T12:16:12.115Z,78.00
2023-01-09T12:19:41.979Z,76.70
2023-01-09T12:22:54.903Z,76.30
2023-01-09T12:26:14.989Z,75.80
2023-01-09T12:29:25.119Z,75.90
2023-01-09T12:32:46.908Z,75.70
2023-01-09T12:35:55.669Z,75.20
2023-01-09T12:39:01.982Z,74.80
2023-01-09T12:42:15.773Z,78.70
2023-01-09T12:45:45.692Z,76.90
2023-01-09T12:49:11.483Z,77.30
2023-01-09T12:52:18.174Z,76.30
2023-01-09T12:55:21.491Z,78.10
2023-01-09T12:58:34.649Z,78.90
2023-01-09T13:01:39.320Z,80.30
2023-01-09T13:04:52.038Z,81.80
2023-01-09T13:07:59.767Z,81.40
2023-01-09T13:11:20.720Z,81.60
2023-01-09T13:14:26.504Z,82.50
2023-01-09T13:17:38.808Z,82.50
2023-01-09T13:20:45.411Z,81.50
2023-01-09T13:24:18.489Z,81.40
2023-01-09T13:27:21.260Z,81.40
2023-01-09T13:30:36.644Z,81.30
2023-01-09T13:33:40.183Z,80.70
2023-01-09T13:36:40.474Z,80.10
2023-01-09T13:39:38.377Z,79.00
2023-01-09T13:42:36.456Z,78.40
2023-01-09T13:45:37.575Z,78.80
2023-01-09T13:48:43.260Z,78.90
2023-01-09T13:52:02.254Z,78.40
2023-01-09T13:55:03.724Z,79.10
2023-01-09T13:58:19.872Z,80.50
2023-01-09T14:01:41.643Z,81.60
2023-01-09T14:04:44.100Z,83.00
2023-01-09T14:07:46.174Z,85.80
2023-01-09T14:10:52.036Z,90.30
2023-01-09T14:13:59.567Z,90.60
2023-01-09T14:16:59.696Z,92.00
2023-01-09T14:20:00.921Z,92.30
2023-01-09T14:26:23.113Z,92.20
2023-01-09T14:29:39.028Z,92.40
2023-01-09T14:32:39.438Z,92.70
2023-01-09T14:35:47.022Z,93.20
2023-01-09T14:38:49.649Z,93.00
2023-01-09T14:41:58.946Z,92.80
2023-01-09T14:45:19.870Z,92.30
2023-01-09T14:48:18.093Z,91.90
2023-01-09T14:51:17.760Z,92.50
2023-01-09T14:54:28.265Z,92.10
2023-01-09T14:57:28.562Z,91.80
2023-01-09T15:00:26.481Z,91.20
2023-01-09T15:03:26.821Z,91.10
2023-01-09T15:06:27.280Z,91.10
2023-01-09T15:09:45.299Z,91.50
2023-01-09T15:12:47.255Z,91.40
2023-01-09T15:15:48.918Z,91.30
2023-01-09T15:18:50.623Z,91.30
2023-01-09T15:22:06.043Z,91.90
2023-01-09T15:25:33.662Z,91.60
2023-01-09T15:28:40.834Z,91.40
2023-01-09T15:31:42.644Z,91.00
2023-01-09T15:34:40.724Z,91.40
2023-01-09T15:37:39.575Z,91.70
2023-01-09T15:40:38.264Z,91.70
2023-01-09T15:43:40.224Z,91.80
2023-01-09T15:46:38.448Z,92.20
2023-01-09T15:49:37.799Z,91.50
2023-01-09T15:52:35.825Z,91.40
2023-01-09T15:55:35.683Z,91.20
2023-01-09T15:58:36.707Z,91.60
2023-01-09T16:01:47.295Z,92.00
2023-01-09T16:04:46.115Z,92.50
2023-01-09T16:07:47.832Z,92.70
2023-01-09T16:10:55.311Z,92.80
2023-01-09T16:13:54.679Z,92.30
2023-01-09T16:16:53.832Z,92.00
2023-01-09T16:19:54.547Z,92.10
2023-01-09T16:22:55.093Z,91.90
2023-01-09T16:26:05.535Z,91.70
2023-01-09T16:29:34.037Z,91.70
2023-01-09T16:32:34.781Z,91.70
2023-01-09T16:35:32.883Z,91.60
2023-01-09T16:38:32.861Z,91.50
2023-01-09T16:41:46.379Z,91.50
2023-01-09T16:44:44.155Z,91.30
2023-01-09T16:47:41.979Z,91.70
2023-01-09T16:50:40.716Z,91.70
2023-01-09T16:53:38.615Z,91.60
2023-01-09T16:56:37.648Z,92.50
2023-01-09T16:59:35.506Z,92.10
2023-01-09T17:02:33.215Z,91.60
2023-01-09T17:05:31.512Z,91.60
2023-01-09T17:08:31.643Z,92.20
2023-01-09T17:11:32.309Z,92.40
2023-01-09T17:14:30.172Z,92.20
2023-01-09T17:17:27.999Z,92.80
2023-01-09T17:20:25.857Z,93.20
2023-01-09T17:23:26.327Z,93.30
2023-01-09T17:26:39.329Z,92.80
2023-01-09T17:29:36.999Z,93.30
2023-01-09T17:32:34.707Z,92.80
2023-01-09T17:35:32.530Z,92.20
2023-01-09T17:38:30.749Z,92.60
2023-01-09T17:41:30.849Z,92.40
2023-01-09T17:44:28.757Z,92.60
2023-01-09T17:47:26.587Z,92.30
2023-01-09T17:50:28.854Z,91.90
2023-01-09T17:53:27.001Z,91.60
2023-01-09T17:56:29.870Z,91.60
2023-01-09T17:59:28.075Z,91.30
2023-01-09T18:02:25.877Z,90.50
2023-01-09T18:05:24.938Z,90.70
2023-01-09T18:08:22.643Z,90.60
2023-01-09T18:11:22.255Z,90.00
2023-01-09T18:14:20.013Z,90.10
2023-01-09T18:17:17.875Z,90.30
2023-01-09T18:20:15.677Z,89.80
2023-01-09T18:23:14.030Z,89.50
2023-01-09T18:26:20.325Z,90.10
2023-01-09T18:29:20.592Z,89.80
2023-01-09T18:32:18.337Z,88.90
2023-01-09T18:35:16.964Z,88.60
2023-01-09T18:38:15.987Z,89.30
2023-01-09T18:41:14.522Z,89.70
2023-01-09T18:44:12.382Z,89.00
2023-01-09T18:47:10.232Z,88.30
2023-01-09T18:50:08.384Z,88.90
2023-01-09T18:53:06.850Z,89.60
2023-01-09T18:56:05.606Z,88.70
2023-01-09T18:59:03.534Z,88.60
2023-01-09T19:02:02.300Z,90.50
2023-01-09T19:05:00.277Z,90.60
2023-01-09T19:07:58.057Z,90.10
2023-01-09T19:10:55.948Z,90.20
2023-01-09T19:13:53.752Z,90.20
2023-01-09T19:16:51.644Z,90.30
2023-01-09T19:19:49.745Z,90.30
2023-01-09T19:22:47.517Z,90.90
2023-01-09T19:25:45.385Z,90.40
2023-01-09T19:28:45.906Z,90.80
2023-01-09T19:31:45.312Z,91.30
2023-01-09T19:34:43.175Z,91.20
2023-01-09T19:37:40.969Z,91.40
2023-01-09T19:40:38.887Z,91.20
2023-01-09T19:43:39.341Z,91.30
2023-01-09T19:46:38.338Z,91.00
2023-01-09T19:49:36.066Z,91.10
2023-01-09T19:52:34.241Z,91.30
2023-01-09T19:55:32.079Z,91.00
2023-01-09T19:58:32.775Z,90.50
2023-01-09T20:01:33.054Z,90.80
2023-01-09T20:07:56.203Z,91.00
2023-01-09T20:10:54.049Z,91.20
2023-01-09T20:13:52.546Z,90.60
2023-01-09T20:16:52.829Z,91.10
2023-01-09T20:19:50.674Z,90.90
2023-01-09T20:22:48.458Z,91.00
2023-01-09T20:25:46.535Z,91.30
2023-01-09T20:28:44.999Z,91.60
2023-01-09T20:31:43.313Z,91.50
2023-01-09T20:34:43.013Z,91.60
2023-01-09T20:37:40.894Z,91.70
2023-01-09T20:40:39.832Z,91.20
2023-01-09T20:43:38.320Z,91.10
2023-01-09T20:46:39.049Z,91.10
2023-01-09T20:49:36.918Z,91.00
2023-01-09T20:52:34.624Z,91.20
2023-01-09T20:55:32.448Z,91.00
2023-01-09T20:58:30.229Z,91.00
2023-01-09T21:01:28.712Z,90.80
2023-01-09T21:04:26.536Z,90.70
2023-01-09T21:07:25.547Z,90.40
2023-01-09T21:10:23.259Z,90.20
2023-01-09T21:13:21.075Z,90.50
2023-01-09T21:16:24.786Z,90.40
2023-01-09T21:19:23.187Z,90.60
2023-01-09T21:22:21.143Z,90.50
2023-01-09T21:25:19.065Z,90.60
2023-01-09T21:28:18.931Z,90.80
2023-01-09T21:31:19.930Z,90.90
2023-01-09T21:34:20.977Z,90.70
2023-01-09T21:37:18.831Z,90.40
2023-01-09T21:40:18.265Z,90.60
2023-01-09T21:43:41.188Z,90.30
2023-01-09T21:46:54.631Z,90.30
2023-01-09T21:49:52.558Z,90.30
2023-01-09T21:52:50.415Z,90.70
2023-01-09T21:55:48.308Z,90.60
2023-01-09T21:58:46.208Z,90.50
2023-01-09T22:01:44.729Z,90.90
2023-01-09T22:04:43.529Z,90.60
2023-01-09T22:07:41.410Z,90.60
2023-01-09T22:10:39.312Z,90.60
2023-01-09T22:13:37.186Z,90.10
2023-01-09T22:16:35.102Z,89.80
2023-01-09T22:19:33.234Z,89.40
2023-01-09T22:22:31.192Z,90.10
2023-01-09T22:25:29.072Z,90.00
2023-01-09T22:28:26.892Z,90.30
2023-01-09T22:31:26.363Z,90.10
2023-01-09T22:34:26.326Z,90.40
2023-01-09T22:37:24.109Z,90.30
2023-01-09T22:40:21.825Z,90.00
2023-01-09T22:43:19.697Z,89.10
2023-01-09T22:46:17.640Z,89.00
2023-01-09T22:49:15.515Z,89.30
2023-01-09T22:52:13.174Z,90.00
2023-01-09T22:55:11.952Z,90.50
2023-01-09T22:58:09.615Z,90.80
2023-01-09T23:01:10.261Z,91.40
2023-01-09T23:04:10.300Z,91.60
2023-01-09T23:07:08.275Z,90.90
2023-01-09T23:10:06.605Z,91.10
2023-01-09T23:13:04.537Z,90.70
2023-01-09T23:16:02.397Z,90.60
2023-01-09T23:19:00.358Z,90.70
2023-01-09T23:22:00.001Z,91.00
2023-01-09T23:24:57.859Z,90.90
2023-01-09T23:27:55.811Z,91.00
2023-01-09T23:30:54.148Z,90.70
2023-01-09T23:33:52.106Z,90.50
2023-01-09T23:36:50.295Z,90.60
2023-01-09T23:39:48.032Z,90.30
2023-01-09T23:43:01.270Z,90.60
2023-01-09T23:45:59.011Z,90.90
2023-01-09T23:48:56.888Z,91.20
2023-01-09T23:51:54.626Z,90.70
2023-01-09T23:54:52.523Z,91.20
2023-01-09T23:57:54.800Z,91.10
